Time;durP1;ratioP1;P1;durP2;ratioP2;P2;SDS_P1;SDS_P2;PMS_P1;PMS_P2;Temp;Humidity;BMP_temperature;BMP_pressure;BME280_temperature;BME280_humidity;BME280_pressure;Samples;Min_cycle;Max_cycle;Signal;HPM_P1;HPM_P2
2022/02/25 00:01:27;;;;;;;0.55;0.55;;;3.50;99.90;;;;;;5034711;28;20730;-39
2022/02/25 00:03:52;;;;;;;0.60;0.60;;;3.40;99.90;;;;;;5037679;28;20028;-39
2022/02/25 00:06:19;;;;;;;0.60;0.60;;;3.30;99.90;;;;;;5032123;28;20033;-38
2022/02/25 00:08:45;;;;;;;0.60;0.60;;;3.20;99.90;;;;;;5037712;28;20109;-39
2022/02/25 00:11:11;;;;;;;0.68;0.68;;;3.10;99.90;;;;;;5039876;28;20601;-36
2022/02/25 00:13:37;;;;;;;0.55;0.55;;;3.20;99.90;;;;;;5038496;28;20029;-38
2022/02/25 00:16:03;;;;;;;0.63;0.63;;;3.20;99.90;;;;;;5042562;28;20038;-39
2022/02/25 00:18:28;;;;;;;0.70;0.70;;;3.30;99.90;;;;;;5034581;28;20683;-38
2022/02/25 00:20:54;;;;;;;0.75;0.75;;;3.40;99.90;;;;;;5041092;28;20059;-38
2022/02/25 00:23:20;;;;;;;0.60;0.60;;;3.40;99.90;;;;;;5038554;28;20033;-39
2022/02/25 00:25:45;;;;;;;0.63;0.63;;;3.10;99.90;;;;;;5039141;28;20037;-37
2022/02/25 00:28:11;;;;;;;0.65;0.65;;;3.00;99.90;;;;;;5038618;28;20167;-36
2022/02/25 00:30:37;;;;;;;0.77;0.77;;;2.90;99.90;;;;;;5035222;28;20086;-36
2022/02/25 00:33:03;;;;;;;0.85;0.85;;;2.80;99.90;;;;;;5039301;28;20037;-39
2022/02/25 00:35:28;;;;;;;0.60;0.60;;;3.00;99.90;;;;;;5039330;28;20052;-36
2022/02/25 00:37:54;;;;;;;0.80;0.80;;;3.00;99.90;;;;;;5036837;28;20504;-38
2022/02/25 00:40:21;;;;;;;1.40;0.80;;;3.00;99.90;;;;;;5036925;28;20033;-38
2022/02/25 00:42:47;;;;;;;1.60;0.80;;;3.10;99.90;;;;;;5036727;28;20083;-38
2022/02/25 00:45:12;;;;;;;2.15;0.90;;;3.00;99.90;;;;;;5031510;28;22645;-36
2022/02/25 00:47:38;;;;;;;1.00;1.00;;;3.10;99.90;;;;;;5034001;28;20035;-39
2022/02/25 00:50:05;;;;;;;2.08;0.90;;;3.00;99.90;;;;;;5035974;28;20021;-38
2022/02/25 00:52:30;;;;;;;0.90;0.90;;;3.10;99.90;;;;;;5035691;28;20425;-37
2022/02/25 00:54:56;;;;;;;1.00;0.88;;;3.20;99.90;;;;;;5038501;28;20029;-38
2022/02/25 00:57:21;;;;;;;2.00;0.70;;;3.30;99.90;;;;;;5034336;28;20895;-38
2022/02/25 00:59:47;;;;;;;0.90;0.90;;;3.30;99.90;;;;;;5037197;28;20029;-37
2022/02/25 01:02:13;;;;;;;0.75;0.75;;;3.30;99.90;;;;;;5036396;28;20033;-38
2022/02/25 01:04:38;;;;;;;0.90;0.90;;;3.20;99.90;;;;;;5033679;28;20401;-39
2022/02/25 01:07:04;;;;;;;2.50;0.90;;;3.10;99.90;;;;;;5041082;28;20118;-37
2022/02/25 01:09:30;;;;;;;1.08;1.08;;;3.10;99.90;;;;;;5039665;28;20013;-38
2022/02/25 01:11:55;;;;;;;0.90;0.90;;;3.20;99.90;;;;;;5033101;28;21055;-38
2022/02/25 01:14:21;;;;;;;2.88;1.00;;;3.20;99.90;;;;;;5038937;28;20039;-39
2022/02/25 01:16:46;;;;;;;0.95;0.93;;;3.20;99.90;;;;;;5037273;28;20082;-39
2022/02/25 01:19:12;;;;;;;1.08;1.08;;;3.20;99.90;;;;;;5033712;28;20033;-38
2022/02/25 01:21:38;;;;;;;1.00;1.00;;;3.20;99.90;;;;;;5033314;28;20378;-39
2022/02/25 01:24:04;;;;;;;2.67;1.08;;;3.30;99.90;;;;;;5032143;28;22247;-39
2022/02/25 01:26:31;;;;;;;1.10;1.10;;;3.20;99.90;;;;;;5031866;28;20115;-39
2022/02/25 01:28:56;;;;;;;1.15;0.93;;;3.20;99.90;;;;;;5035291;28;20033;-39
2022/02/25 01:31:23;;;;;;;0.93;0.93;;;3.20;99.90;;;;;;5033271;28;20038;-37
2022/02/25 01:33:49;;;;;;;0.80;0.80;;;3.20;99.90;;;;;;5037286;28;20513;-39
2022/02/25 01:36:14;;;;;;;0.80;0.80;;;3.10;99.90;;;;;;5035956;28;20086;-39
2022/02/25 01:38:40;;;;;;;1.00;1.00;;;3.10;99.90;;;;;;5031134;28;20472;-38
2022/02/25 01:41:05;;;;;;;0.68;0.68;;;3.10;99.90;;;;;;5026998;28;20037;-39
2022/02/25 01:43:32;;;;;;;0.73;0.73;;;3.10;99.90;;;;;;5031144;28;20031;-36
2022/02/25 01:45:58;;;;;;;0.90;0.90;;;3.10;99.90;;;;;;5027671;28;21034;-39
2022/02/25 01:48:25;;;;;;;0.70;0.70;;;3.10;99.90;;;;;;5034238;28;20021;-39
2022/02/25 01:50:51;;;;;;;0.90;0.90;;;3.10;99.90;;;;;;5033465;28;20037;-39
2022/02/25 01:53:19;;;;;;;0.68;0.68;;;3.00;99.90;;;;;;5034360;28;20037;-36
2022/02/25 01:55:47;;;;;;;0.88;0.88;;;3.00;99.90;;;;;;5032808;28;20067;-39
2022/02/25 01:58:13;;;;;;;0.90;0.90;;;2.90;99.90;;;;;;5035516;28;20059;-37
2022/02/25 02:00:39;;;;;;;0.70;0.70;;;2.90;99.90;;;;;;5035717;28;20033;-39
2022/02/25 02:03:05;;;;;;;0.68;0.68;;;2.90;99.90;;;;;;5038026;28;20107;-39
2022/02/25 02:05:32;;;;;;;0.80;0.80;;;2.90;99.90;;;;;;5038548;28;20463;-39
2022/02/25 02:07:58;;;;;;;0.68;0.68;;;2.90;99.90;;;;;;5037721;28;20500;-38
2022/02/25 02:10:24;;;;;;;0.80;0.80;;;2.80;99.90;;;;;;5037441;28;20013;-39
2022/02/25 02:12:49;;;;;;;1.70;0.80;;;2.80;99.90;;;;;;5039117;28;20028;-38
2022/02/25 02:15:15;;;;;;;0.73;0.73;;;2.80;99.90;;;;;;5038500;28;20119;-40
2022/02/25 02:17:41;;;;;;;0.70;0.70;;;2.70;99.90;;;;;;5039494;28;20037;-38
2022/02/25 02:20:07;;;;;;;0.90;0.90;;;2.80;99.90;;;;;;5040088;28;20044;-37
2022/02/25 02:22:33;;;;;;;2.05;0.90;;;2.80;99.90;;;;;;5035268;28;20037;-36
2022/02/25 02:24:59;;;;;;;0.70;0.70;;;2.80;99.90;;;;;;5041638;28;20036;-38
2022/02/25 02:28:17;;;;;;;0.63;0.63;;;2.80;99.90;;;;;;5034558;28;20041;-39
2022/02/25 02:30:16;;;;;;;1.20;0.80;;;2.80;99.90;;;;;;5041988;28;20037;-39
2022/02/25 02:32:42;;;;;;;0.70;0.70;;;2.80;99.90;;;;;;5037462;28;20017;-39
2022/02/25 02:35:08;;;;;;;0.98;0.70;;;2.80;99.90;;;;;;5044640;28;20052;-39
2022/02/25 02:37:34;;;;;;;0.60;0.60;;;2.80;99.90;;;;;;5038614;28;20025;-39
2022/02/25 02:40:00;;;;;;;0.60;0.60;;;2.80;99.90;;;;;;5039436;28;20585;-37
2022/02/25 02:42:25;;;;;;;0.65;0.65;;;2.80;99.90;;;;;;5045965;28;20068;-39
2022/02/25 02:44:51;;;;;;;4.32;0.90;;;2.80;99.90;;;;;;5039666;28;20047;-36
2022/02/25 02:47:16;;;;;;;0.70;0.70;;;2.70;99.90;;;;;;5043988;28;20913;-39
2022/02/25 02:49:42;;;;;;;0.70;0.70;;;2.70;99.90;;;;;;5040322;28;20052;-38
2022/02/25 02:52:08;;;;;;;0.85;0.75;;;2.70;99.90;;;;;;5037508;28;20033;-39
2022/02/25 02:54:33;;;;;;;0.60;0.60;;;2.70;99.90;;;;;;5040946;28;20071;-38
2022/02/25 02:56:59;;;;;;;0.70;0.70;;;2.70;99.90;;;;;;5040232;28;20038;-39
2022/02/25 02:59:25;;;;;;;0.60;0.60;;;2.70;99.90;;;;;;5040631;28;20036;-39
2022/02/25 03:01:50;;;;;;;0.70;0.70;;;2.70;99.90;;;;;;5039612;28;20051;-39
2022/02/25 03:04:16;;;;;;;0.70;0.70;;;2.70;99.90;;;;;;5037830;28;20033;-38
2022/02/25 03:06:42;;;;;;;1.10;1.00;;;2.70;99.90;;;;;;5042545;28;20436;-38
2022/02/25 03:09:07;;;;;;;2.05;0.80;;;2.70;99.90;;;;;;5041692;28;20056;-39
2022/02/25 03:11:33;;;;;;;0.70;0.70;;;2.70;99.90;;;;;;5038817;28;20026;-39
2022/02/25 03:13:59;;;;;;;0.63;0.63;;;2.70;99.90;;;;;;5040642;28;20036;-40
2022/02/25 03:16:25;;;;;;;0.60;0.60;;;2.60;99.90;;;;;;5067578;28;20029;-39
2022/02/25 03:18:50;;;;;;;0.80;0.80;;;2.70;99.90;;;;;;5047199;28;20040;-40
2022/02/25 03:21:20;;;;;;;0.80;0.80;;;2.70;99.90;;;;;;5036241;28;20051;-39
2022/02/25 03:23:45;;;;;;;0.70;0.70;;;2.70;99.90;;;;;;5041455;28;20043;-36
2022/02/25 03:26:11;;;;;;;1.23;1.13;;;2.60;99.90;;;;;;5044304;28;20017;-38
2022/02/25 03:28:37;;;;;;;0.95;0.95;;;2.60;99.90;;;;;;5041390;28;20028;-40
2022/02/25 03:31:03;;;;;;;1.38;0.90;;;2.70;99.90;;;;;;5039129;28;20079;-39
2022/02/25 03:33:29;;;;;;;2.47;0.85;;;2.60;99.90;;;;;;5035893;28;20078;-39
2022/02/25 03:35:55;;;;;;;0.75;0.75;;;2.60;99.90;;;;;;5038891;28;20091;-37
2022/02/25 03:38:23;;;;;;;0.80;0.80;;;2.60;99.90;;;;;;5040777;28;20017;-39
2022/02/25 03:40:50;;;;;;;1.80;1.70;;;2.60;99.90;;;;;;5038584;28;20071;-37
2022/02/25 03:43:15;;;;;;;0.88;0.88;;;2.60;99.90;;;;;;5037232;28;20043;-38
2022/02/25 03:45:41;;;;;;;0.90;0.90;;;2.60;99.90;;;;;;5039191;28;20481;-40
2022/02/25 03:48:06;;;;;;;0.68;0.65;;;2.50;99.90;;;;;;5040598;28;20025;-37
2022/02/25 03:50:32;;;;;;;1.02;0.90;;;2.50;99.90;;;;;;5037997;28;20607;-40
2022/02/25 03:52:58;;;;;;;0.85;0.85;;;2.50;99.90;;;;;;5036384;28;20068;-36
2022/02/25 03:55:24;;;;;;;0.90;0.90;;;2.50;99.90;;;;;;5034574;28;20029;-38
2022/02/25 03:57:49;;;;;;;0.88;0.77;;;2.50;99.90;;;;;;5039817;28;20103;-39
2022/02/25 04:00:16;;;;;;;1.20;1.20;;;2.40;99.90;;;;;;5041863;28;20060;-40
2022/02/25 04:02:41;;;;;;;0.90;0.82;;;2.40;99.90;;;;;;5040474;28;20041;-39
2022/02/25 04:05:10;;;;;;;0.82;0.80;;;2.40;99.90;;;;;;5045524;28;20036;-38
2022/02/25 04:07:37;;;;;;;;;;;2.30;99.90;;;;;;5041067;28;20024;-39
2022/02/25 04:10:03;;;;;;;0.68;0.68;;;2.40;99.90;;;;;;5053554;28;19971;-38
2022/02/25 04:12:29;;;;;;;1.00;1.00;;;2.30;99.90;;;;;;5039086;28;20517;-39
2022/02/25 04:14:54;;;;;;;2.90;1.00;;;2.30;99.90;;;;;;5040138;28;20131;-39
2022/02/25 04:17:20;;;;;;;0.70;0.70;;;2.30;99.90;;;;;;5040701;28;20397;-37
2022/02/25 04:19:46;;;;;;;1.73;1.63;;;2.30;99.90;;;;;;5040192;28;20025;-39
2022/02/25 04:22:13;;;;;;;2.20;1.02;;;2.30;99.90;;;;;;5037846;28;20152;-38
2022/02/25 04:24:38;;;;;;;1.00;0.77;;;2.20;99.90;;;;;;5035967;28;20044;-39
2022/02/25 04:27:04;;;;;;;4.45;1.42;;;2.30;99.90;;;;;;5039180;28;20045;-37
2022/02/25 04:29:30;;;;;;;0.70;0.70;;;2.30;99.90;;;;;;5033304;28;20397;-39
2022/02/25 04:31:55;;;;;;;1.70;0.90;;;2.20;99.90;;;;;;5034865;28;20033;-39
2022/02/25 04:34:21;;;;;;;0.93;0.90;;;2.20;99.90;;;;;;5034482;28;20374;-39
2022/02/25 04:36:47;;;;;;;0.75;0.75;;;2.20;99.90;;;;;;5037657;28;20037;-38
2022/02/25 04:39:12;;;;;;;1.40;0.90;;;2.20;99.90;;;;;;5036951;28;20036;-36
2022/02/25 04:41:38;;;;;;;1.05;0.98;;;2.10;99.90;;;;;;5037176;28;20355;-37
2022/02/25 04:44:04;;;;;;;1.20;1.10;;;2.10;99.90;;;;;;5036134;28;20632;-36
2022/02/25 04:46:30;;;;;;;0.70;0.70;;;2.00;99.90;;;;;;5036512;28;20041;-39
2022/02/25 04:48:55;;;;;;;1.20;0.60;;;2.00;99.90;;;;;;5039650;28;20028;-40
2022/02/25 04:51:21;;;;;;;0.80;0.80;;;2.00;99.90;;;;;;5038390;28;20033;-40
2022/02/25 04:53:50;;;;;;;1.38;1.23;;;2.00;99.90;;;;;;5042909;28;20031;-37
2022/02/25 04:56:16;;;;;;;0.80;0.80;;;2.00;99.90;;;;;;5033668;28;20140;-38
2022/02/25 04:58:42;;;;;;;1.10;0.82;;;2.00;99.90;;;;;;5039718;28;20028;-40
2022/02/25 05:01:07;;;;;;;1.58;1.08;;;1.90;99.90;;;;;;5039836;28;20513;-40
2022/02/25 05:03:33;;;;;;;0.88;0.88;;;1.80;99.90;;;;;;5034009;28;20037;-39
2022/02/25 05:06:00;;;;;;;0.70;0.70;;;1.70;99.90;;;;;;5037219;28;20033;-39
2022/02/25 05:08:25;;;;;;;2.13;0.80;;;1.70;99.90;;;;;;5034974;28;20031;-39
2022/02/25 05:10:52;;;;;;;0.90;0.90;;;1.60;99.90;;;;;;5037261;28;20029;-39
2022/02/25 05:13:18;;;;;;;0.63;0.63;;;1.60;99.90;;;;;;5038544;28;20039;-39
2022/02/25 05:21:12;;;;;;;0.80;0.80;;;1.50;99.90;;;;;;5036256;28;20559;-39
2022/02/25 05:23:37;;;;;;;0.80;0.80;;;1.60;99.90;;;;;;5040227;28;20034;-38
2022/02/25 05:26:06;;;;;;;0.75;0.75;;;1.60;99.90;;;;;;5034418;28;20037;-39
2022/02/25 05:28:32;;;;;;;1.67;0.80;;;1.50;99.90;;;;;;5035040;28;20413;-37
2022/02/25 05:30:57;;;;;;;1.17;1.17;;;1.50;99.90;;;;;;5033968;28;20044;-40
2022/02/25 05:33:23;;;;;;;0.88;0.80;;;1.60;99.90;;;;;;5040267;28;20041;-36
2022/02/25 05:35:49;;;;;;;1.23;0.90;;;1.60;99.90;;;;;;5041516;28;20033;-40
2022/02/25 05:38:14;;;;;;;0.80;0.80;;;1.50;99.90;;;;;;5036749;28;20033;-39
2022/02/25 05:40:40;;;;;;;1.00;1.00;;;1.50;99.90;;;;;;5038053;28;20493;-37
2022/02/25 05:43:06;;;;;;;3.08;1.27;;;1.60;99.90;;;;;;5038826;28;20029;-40
2022/02/25 05:45:32;;;;;;;0.90;0.90;;;1.60;99.90;;;;;;5035769;28;20074;-40
2022/02/25 05:47:58;;;;;;;1.42;1.35;;;1.60;99.90;;;;;;5040583;28;20033;-39
2022/02/25 05:50:24;;;;;;;1.77;1.00;;;1.60;99.90;;;;;;5035859;28;20611;-37
2022/02/25 05:52:50;;;;;;;1.23;1.13;;;1.60;99.90;;;;;;5037310;28;20049;-38
2022/02/25 05:55:19;;;;;;;1.00;1.00;;;1.50;99.90;;;;;;5036422;28;20835;-36
2022/02/25 05:57:45;;;;;;;1.08;1.08;;;1.50;99.90;;;;;;5036042;28;20531;-37
2022/02/25 06:00:13;;;;;;;1.00;0.95;;;1.40;99.90;;;;;;5033778;28;20029;-39
2022/02/25 06:02:39;;;;;;;1.83;1.23;;;1.40;99.90;;;;;;5033663;28;20073;-37
2022/02/25 06:05:05;;;;;;;5.50;1.45;;;1.30;99.90;;;;;;5036666;28;20063;-36
2022/02/25 06:07:30;;;;;;;1.00;1.00;;;1.30;99.90;;;;;;5045151;28;20033;-36
2022/02/25 06:09:56;;;;;;;1.52;1.10;;;1.30;99.90;;;;;;5042262;28;20467;-37
2022/02/25 06:12:22;;;;;;;5.18;1.20;;;1.30;99.90;;;;;;5036102;28;20028;-39
2022/02/25 06:14:47;;;;;;;1.15;1.13;;;1.30;99.90;;;;;;5037930;28;20166;-36
2022/02/25 06:17:13;;;;;;;2.58;1.05;;;1.40;99.90;;;;;;5041173;28;20116;-37
2022/02/25 06:19:39;;;;;;;1.50;0.95;;;1.40;99.90;;;;;;5042301;28;20381;-39
2022/02/25 06:22:05;;;;;;;0.82;0.82;;;1.30;99.90;;;;;;5037850;28;22396;-39
2022/02/25 06:24:31;;;;;;;1.83;1.10;;;1.40;99.90;;;;;;5037617;28;20031;-39
2022/02/25 06:26:56;;;;;;;0.90;0.90;;;1.40;99.90;;;;;;5034297;28;20083;-36
2022/02/25 06:29:22;;;;;;;1.30;1.20;;;1.40;99.90;;;;;;5038779;28;20108;-36
2022/02/25 06:31:48;;;;;;;0.73;0.73;;;1.40;99.90;;;;;;5035412;28;20036;-39
2022/02/25 06:34:13;;;;;;;1.45;0.98;;;1.40;99.90;;;;;;5041519;28;20041;-40
2022/02/25 06:36:39;;;;;;;1.02;1.00;;;1.40;99.90;;;;;;5037119;28;20080;-40
2022/02/25 06:39:05;;;;;;;3.10;2.13;;;1.50;99.90;;;;;;5038587;28;20037;-38
2022/02/25 06:41:31;;;;;;;1.10;1.10;;;1.50;99.90;;;;;;5038671;28;20037;-36
2022/02/25 06:43:56;;;;;;;3.03;1.33;;;1.40;99.90;;;;;;5036818;28;20025;-36
2022/02/25 06:46:23;;;;;;;1.10;0.95;;;1.40;99.90;;;;;;5037718;28;20033;-38
2022/02/25 06:48:49;;;;;;;1.08;1.08;;;1.40;99.90;;;;;;5039790;28;20040;-40
2022/02/25 06:51:15;;;;;;;0.82;0.82;;;1.50;99.90;;;;;;5037632;28;20025;-36
2022/02/25 06:53:41;;;;;;;1.20;1.20;;;1.50;99.90;;;;;;5039220;28;20039;-36
2022/02/25 06:56:07;;;;;;;1.58;1.48;;;1.50;99.90;;;;;;5038446;28;20022;-36
2022/02/25 06:58:34;;;;;;;1.70;1.30;;;1.50;99.90;;;;;;5035522;28;20040;-37
2022/02/25 07:01:00;;;;;;;6.95;1.77;;;1.50;99.90;;;;;;5044528;28;20052;-37
2022/02/25 07:03:26;;;;;;;2.28;1.15;;;1.50;99.90;;;;;;5040677;28;20491;-40
2022/02/25 07:05:51;;;;;;;3.90;1.42;;;1.60;99.90;;;;;;5034706;28;20037;-38
2022/02/25 07:08:17;;;;;;;0.90;0.90;;;1.60;99.90;;;;;;5039242;28;20368;-40
2022/02/25 07:10:43;;;;;;;0.82;0.82;;;1.60;99.90;;;;;;5036571;28;20083;-39
2022/02/25 07:13:10;;;;;;;1.33;1.23;;;1.60;99.90;;;;;;5034730;28;20040;-39
2022/02/25 07:15:36;;;;;;;1.75;0.98;;;1.60;99.90;;;;;;5036781;28;20036;-38
2022/02/25 07:18:02;;;;;;;1.45;1.13;;;1.60;99.90;;;;;;5032316;28;20604;-36
2022/02/25 07:20:29;;;;;;;1.13;1.13;;;1.70;99.90;;;;;;5036172;28;20048;-39
2022/02/25 07:22:55;;;;;;;0.98;0.98;;;1.70;99.90;;;;;;5038516;28;20401;-36
2022/02/25 07:25:21;;;;;;;1.48;0.90;;;1.70;99.90;;;;;;5034124;28;20036;-39
2022/02/25 07:27:47;;;;;;;0.80;0.80;;;1.80;99.90;;;;;;5036875;28;20045;-39
2022/02/25 07:30:14;;;;;;;1.13;0.95;;;1.80;99.90;;;;;;5038490;28;20036;-38
2022/02/25 07:32:40;;;;;;;3.03;1.48;;;1.80;99.90;;;;;;5035361;28;20033;-39
2022/02/25 07:35:08;;;;;;;3.67;1.20;;;1.90;99.90;;;;;;5034672;28;20037;-39
2022/02/25 07:37:34;;;;;;;2.88;1.30;;;1.90;99.90;;;;;;5031156;28;20029;-39
2022/02/25 07:39:59;;;;;;;0.90;0.90;;;2.00;99.90;;;;;;5034543;28;20186;-39
2022/02/25 07:42:26;;;;;;;1.48;1.02;;;2.00;99.90;;;;;;5037970;28;20040;-39
2022/02/25 07:44:52;;;;;;;1.45;1.35;;;2.10;99.90;;;;;;5040456;28;20090;-37
2022/02/25 07:47:19;;;;;;;1.90;1.25;;;2.10;99.90;;;;;;5039591;28;20029;-36
2022/02/25 07:49:46;;;;;;;6.38;1.50;;;2.10;99.90;;;;;;5038956;28;20020;-37
2022/02/25 07:52:12;;;;;;;4.82;1.88;;;2.20;99.90;;;;;;5040086;28;20486;-37
2022/02/25 07:54:38;;;;;;;1.92;1.80;;;2.20;99.90;;;;;;5040080;28;20025;-37
2022/02/25 07:57:04;;;;;;;1.73;1.15;;;2.30;99.90;;;;;;5040087;28;20032;-36
2022/02/25 07:59:30;;;;;;;2.60;0.93;;;2.30;99.90;;;;;;5040077;28;20541;-38
2022/02/25 08:01:56;;;;;;;0.82;0.82;;;2.30;99.90;;;;;;5037656;28;20037;-39
2022/02/25 08:04:22;;;;;;;4.00;1.45;;;2.40;99.90;;;;;;5037362;28;20674;-39
2022/02/25 08:06:47;;;;;;;1.27;0.95;;;2.40;99.90;;;;;;5046167;28;20029;-38
2022/02/25 08:09:13;;;;;;;2.92;1.20;;;2.50;99.90;;;;;;5034163;28;20033;-40
2022/02/25 08:11:40;;;;;;;0.90;0.90;;;2.50;99.90;;;;;;5035758;28;20043;-38
2022/02/25 08:14:06;;;;;;;5.80;1.45;;;2.50;99.90;;;;;;5041909;28;20040;-39
2022/02/25 08:16:31;;;;;;;1.27;1.10;;;2.60;99.90;;;;;;5036474;28;21026;-37
2022/02/25 08:18:57;;;;;;;0.90;0.90;;;2.60;99.90;;;;;;5035358;28;20539;-39
2022/02/25 08:21:22;;;;;;;3.60;1.63;;;2.60;99.90;;;;;;5037676;28;20029;-38
2022/02/25 08:23:48;;;;;;;0.85;0.85;;;2.80;99.90;;;;;;5036529;28;20017;-40
2022/02/25 08:26:14;;;;;;;2.85;1.30;;;2.90;99.90;;;;;;5037210;28;20053;-39
2022/02/25 08:28:40;;;;;;;3.03;1.17;;;2.90;99.90;;;;;;5040934;28;20425;-39
2022/02/25 08:31:11;;;;;;;3.60;1.17;;;3.00;99.90;;;;;;5035279;28;20032;-39
2022/02/25 08:33:40;;;;;;;2.22;1.63;;;3.10;99.90;;;;;;5035671;28;20090;-39
2022/02/25 08:36:07;;;;;;;3.53;1.67;;;3.20;99.90;;;;;;5033403;28;20032;-36
2022/02/25 08:38:32;;;;;;;1.30;1.30;;;3.20;99.90;;;;;;5035149;28;20025;-36
2022/02/25 08:40:58;;;;;;;3.08;1.08;;;3.10;99.90;;;;;;5032762;28;20029;-37
2022/02/25 08:43:24;;;;;;;2.05;1.10;;;3.20;99.90;;;;;;5033348;28;20043;-39
2022/02/25 08:45:49;;;;;;;3.40;1.45;;;3.40;99.90;;;;;;5038125;28;20043;-36
2022/02/25 08:48:16;;;;;;;0.73;0.73;;;3.40;99.90;;;;;;5034725;28;20036;-40
2022/02/25 08:50:42;;;;;;;2.63;1.17;;;3.30;99.90;;;;;;5037617;28;20012;-38
2022/02/25 08:53:08;;;;;;;2.33;1.10;;;3.30;99.90;;;;;;5041905;28;20033;-39
2022/02/25 08:55:34;;;;;;;2.88;0.98;;;3.30;99.90;;;;;;5031764;28;20502;-36
2022/02/25 08:58:00;;;;;;;1.63;1.27;;;3.50;99.90;;;;;;5035268;28;20051;-38
2022/02/25 09:00:26;;;;;;;0.90;0.90;;;3.80;99.90;;;;;;5046875;28;20115;-38
2022/02/25 09:02:53;;;;;;;1.10;1.10;;;3.90;99.90;;;;;;5037754;28;20097;-40
2022/02/25 09:05:21;;;;;;;3.05;1.20;;;3.90;99.90;;;;;;5040325;28;20040;-39
2022/02/25 09:07:47;;;;;;;1.92;0.95;;;3.70;99.90;;;;;;5037998;28;20032;-37
2022/02/25 09:10:15;;;;;;;1.92;1.05;;;3.70;99.90;;;;;;5036818;28;20044;-38
2022/02/25 09:12:41;;;;;;;1.20;1.00;;;3.80;99.90;;;;;;5035338;28;20121;-39
2022/02/25 09:15:10;;;;;;;1.50;1.23;;;3.70;99.90;;;;;;5041173;28;20048;-39
2022/02/25 09:17:36;;;;;;;2.15;1.20;;;3.60;99.60;;;;;;5046074;28;20048;-38
2022/02/25 09:20:04;;;;;;;1.30;1.20;;;3.50;98.70;;;;;;5041121;28;20647;-39
2022/02/25 09:22:29;;;;;;;0.60;0.60;;;3.50;99.90;;;;;;5032706;28;20075;-39
2022/02/25 09:24:55;;;;;;;3.85;1.23;;;3.50;99.90;;;;;;5038903;28;20113;-40
2022/02/25 09:27:21;;;;;;;4.07;1.27;;;3.80;99.90;;;;;;5036104;28;20069;-39
2022/02/25 09:29:46;;;;;;;1.10;1.00;;;3.90;99.70;;;;;;5039502;28;20033;-36
2022/02/25 09:32:12;;;;;;;1.65;1.17;;;4.10;99.30;;;;;;5032769;28;20057;-36
2022/02/25 09:34:38;;;;;;;1.95;1.00;;;4.30;99.90;;;;;;5033853;28;20033;-38
2022/02/25 09:37:04;;;;;;;5.97;1.13;;;4.20;96.80;;;;;;5037474;28;22265;-37
2022/02/25 09:39:30;;;;;;;2.92;1.05;;;4.20;97.60;;;;;;5036161;28;20031;-38
2022/02/25 09:41:57;;;;;;;1.60;1.08;;;4.00;95.20;;;;;;5041441;28;20033;-39
2022/02/25 09:44:26;;;;;;;3.92;1.05;;;4.00;96.90;;;;;;5045295;28;20029;-40
2022/02/25 09:46:52;;;;;;;1.10;0.75;;;4.10;98.20;;;;;;5041380;28;20029;-39
2022/02/25 09:49:18;;;;;;;1.55;1.38;;;4.10;96.50;;;;;;5046418;28;20029;-38
2022/02/25 09:51:45;;;;;;;2.22;1.00;;;4.20;97.00;;;;;;5038229;28;20037;-36
2022/02/25 09:54:15;;;;;;;1.90;1.00;;;4.20;98.50;;;;;;5042828;28;20101;-39
2022/02/25 09:56:42;;;;;;;1.10;0.82;;;4.20;99.20;;;;;;5048057;28;20029;-38
2022/02/25 09:59:07;;;;;;;1.52;0.82;;;4.20;95.80;;;;;;5039114;28;20032;-39
2022/02/25 10:01:35;;;;;;;1.25;1.20;;;4.10;94.20;;;;;;5041469;28;20049;-36
2022/02/25 10:04:22;;;;;;;1.98;1.00;;;4.10;95.50;;;;;;5048611;28;20490;-37
2022/02/25 10:06:50;;;;;;;1.45;0.65;;;4.10;91.30;;;;;;5040299;28;20118;-39
2022/02/25 10:09:33;;;;;;;1.40;0.85;;;4.00;93.50;;;;;;5040855;28;20075;-39
2022/02/25 10:12:03;;;;;;;0.88;0.75;;;4.00;93.20;;;;;;5037221;28;20103;-37
2022/02/25 10:14:35;;;;;;;1.25;1.15;;;3.90;90.60;;;;;;5043954;28;20112;-36
2022/02/25 10:17:09;;;;;;;0.93;0.80;;;3.90;92.30;;;;;;5039686;28;20416;-39
2022/02/25 10:19:35;;;;;;;3.08;0.88;;;3.90;93.90;;;;;;5039175;28;20111;-37
2022/02/25 10:22:21;;;;;;;0.88;0.88;;;3.90;90.70;;;;;;5039561;28;20025;-39
2022/02/25 10:25:01;;;;;;;1.85;1.00;;;3.90;90.10;;;;;;5036461;28;20033;-39
2022/02/25 10:27:38;;;;;;;6.47;1.30;;;3.80;83.80;;;;;;5039120;28;20310;-39
2022/02/25 10:30:08;;;;;;;0.93;0.90;;;3.90;90.40;;;;;;5037821;28;20044;-40
2022/02/25 10:32:46;;;;;;;2.30;1.25;;;4.00;80.40;;;;;;5035983;28;20041;-37
2022/02/25 10:35:25;;;;;;;0.80;0.80;;;4.30;85.70;;;;;;5040728;28;20033;-38
2022/02/25 10:38:08;;;;;;;2.13;1.05;;;4.20;83.90;;;;;;5040213;28;20025;-37
2022/02/25 10:40:51;;;;;;;1.38;1.25;;;4.10;83.10;;;;;;5045774;28;20427;-39
2022/02/25 10:43:17;;;;;;;0.98;0.88;;;4.20;90.50;;;;;;5041232;28;20485;-39
2022/02/25 10:45:47;;;;;;;1.38;0.88;;;4.30;73.00;;;;;;5042006;28;20025;-36
2022/02/25 10:48:16;;;;;;;0.80;0.80;;;4.20;74.60;;;;;;5044351;28;20024;-39
2022/02/25 10:50:52;;;;;;;2.10;1.50;;;4.30;82.20;;;;;;5042560;28;20052;-39
2022/02/25 10:53:43;;;;;;;1.15;1.00;;;4.30;77.50;;;;;;5040562;28;20032;-38
2022/02/25 10:56:18;;;;;;;0.60;0.60;;;4.20;72.30;;;;;;5038383;28;20032;-38
2022/02/25 10:58:44;;;;;;;1.55;1.00;;;4.30;79.30;;;;;;5040182;28;20162;-39
2022/02/25 11:01:11;;;;;;;0.80;0.80;;;4.40;80.70;;;;;;5042119;28;20036;-38
2022/02/25 11:03:38;;;;;;;0.73;0.73;;;4.50;91.20;;;;;;5038952;28;20047;-39
2022/02/25 11:06:11;;;;;;;1.88;1.20;;;4.50;84.60;;;;;;5038995;28;20508;-39
2022/02/25 11:08:39;;;;;;;1.02;0.93;;;4.50;69.20;;;;;;5043507;28;20024;-39
2022/02/25 11:11:06;;;;;;;4.15;1.20;;;4.50;68.70;;;;;;5037134;28;20715;-39
2022/02/25 11:13:32;;;;;;;0.93;0.93;;;4.40;75.50;;;;;;5045655;28;20086;-39
2022/02/25 11:15:59;;;;;;;0.55;0.55;;;4.50;75.00;;;;;;5032913;28;20040;-39
2022/02/25 11:18:25;;;;;;;0.65;0.57;;;4.70;75.30;;;;;;5037230;28;20030;-40
2022/02/25 11:20:53;;;;;;;2.15;1.00;;;4.80;80.80;;;;;;5038436;28;20136;-37
2022/02/25 11:23:20;;;;;;;1.15;1.15;;;4.80;69.30;;;;;;5039563;28;20033;-39
2022/02/25 11:25:47;;;;;;;2.08;0.77;;;4.70;81.80;;;;;;5038682;28;20479;-38
2022/02/25 11:28:14;;;;;;;2.70;1.40;;;4.50;65.70;;;;;;5039282;28;20044;-39
2022/02/25 11:30:48;;;;;;;1.75;0.80;;;4.50;67.10;;;;;;5040032;28;20049;-37
2022/02/25 11:33:20;;;;;;;2.90;0.90;;;4.50;78.60;;;;;;5040189;28;20029;-40
2022/02/25 11:36:02;;;;;;;1.38;0.90;;;4.70;86.90;;;;;;5035270;28;20037;-39
2022/02/25 11:38:35;;;;;;;0.77;0.77;;;4.80;69.60;;;;;;5039717;28;20037;-37
2022/02/25 11:41:20;;;;;;;1.50;0.75;;;4.70;71.50;;;;;;5043841;28;20041;-37
2022/02/25 11:43:54;;;;;;;2.50;1.00;;;4.70;72.40;;;;;;5044930;28;20032;-36
2022/02/25 11:46:29;;;;;;;0.80;0.80;;;4.60;74.30;;;;;;5036260;28;22044;-38
2022/02/25 11:49:01;;;;;;;0.70;0.70;;;4.80;85.10;;;;;;5040928;28;20083;-38
2022/02/25 11:51:41;;;;;;;1.17;0.70;;;5.20;79.90;;;;;;5047159;28;20036;-37
2022/02/25 11:54:28;;;;;;;1.67;0.90;;;5.30;79.90;;;;;;5038233;28;20025;-39
2022/02/25 11:56:57;;;;;;;1.20;1.13;;;5.10;73.80;;;;;;5040183;28;20041;-37
2022/02/25 11:59:23;;;;;;;;;;;5.10;79.70;;;;;;5043570;28;20021;-38
2022/02/25 12:02:17;;;;;;;1.30;0.77;;;5.00;78.10;;;;;;5034730;28;19920;-36
2022/02/25 12:04:45;;;;;;;1.10;1.00;;;5.00;68.40;;;;;;5038588;28;20490;-39
2022/02/25 12:07:16;;;;;;;2.25;1.02;;;4.80;69.60;;;;;;5037163;28;20052;-38
2022/02/25 12:09:48;;;;;;;1.77;0.85;;;4.70;66.00;;;;;;5040935;28;20017;-39
2022/02/25 12:12:23;;;;;;;1.80;0.75;;;4.80;70.00;;;;;;5038793;28;20037;-39
2022/02/25 12:15:07;;;;;;;2.38;1.20;;;4.80;74.30;;;;;;5074318;28;20058;-39
2022/02/25 12:17:41;;;;;;;0.70;0.70;;;5.20;78.60;;;;;;5043108;28;20129;-37
2022/02/25 12:20:09;;;;;;;0.90;0.85;;;5.60;68.20;;;;;;5040245;28;20028;-39
2022/02/25 12:22:52;;;;;;;4.53;1.25;;;5.80;71.10;;;;;;5037242;28;20030;-37
2022/02/25 12:25:36;;;;;;;1.27;0.90;;;5.70;65.90;;;;;;5037602;28;20447;-37
2022/02/25 12:28:06;;;;;;;2.08;1.10;;;5.70;67.80;;;;;;5040766;28;20049;-38
2022/02/25 12:30:54;;;;;;;1.33;0.90;;;5.50;60.20;;;;;;5040547;28;20036;-39
2022/02/25 12:33:40;;;;;;;1.20;1.00;;;5.30;66.90;;;;;;5036653;28;20039;-40
2022/02/25 12:36:20;;;;;;;1.10;1.00;;;5.30;64.40;;;;;;5036939;28;20120;-39
2022/02/25 12:38:50;;;;;;;2.72;1.08;;;5.10;65.40;;;;;;5031893;28;20063;-38
2022/02/25 12:41:18;;;;;;;1.95;0.75;;;5.00;65.40;;;;;;5033141;28;20048;-38
2022/02/25 12:43:53;;;;;;;0.60;0.60;;;5.00;66.00;;;;;;5036421;28;20040;-39
2022/02/25 12:46:23;;;;;;;3.50;1.35;;;4.90;64.50;;;;;;5038531;28;20531;-36
2022/02/25 12:48:51;;;;;;;2.05;1.17;;;4.90;60.70;;;;;;5039535;28;20037;-36
2022/02/25 12:51:18;;;;;;;1.17;0.82;;;4.90;62.90;;;;;;5039191;28;20366;-36
2022/02/25 12:54:08;;;;;;;3.25;1.02;;;4.90;72.60;;;;;;5038201;28;20040;-39
2022/02/25 12:56:45;;;;;;;0.65;0.65;;;4.90;66.60;;;;;;5032735;28;20053;-38
2022/02/25 12:59:14;;;;;;;1.25;1.17;;;4.90;59.80;;;;;;5042217;28;20040;-37
2022/02/25 13:01:48;;;;;;;0.60;0.60;;;5.00;58.90;;;;;;5038378;28;20109;-37
2022/02/25 13:04:23;;;;;;;0.50;0.50;;;5.10;60.00;;;;;;5036042;28;20028;-37
2022/02/25 13:06:51;;;;;;;2.35;0.82;;;5.20;58.40;;;;;;5038120;28;20029;-36